Airfield :







YOU CAN JOIN US ON...

 
LOGIN :

Register | Disclaimer

   EN    FR    IT 

 









Legend :    VFR   Marginal VFR   IFR   Intensive IFR   Very Intensive IFR
Visi :
Ceiling :
>= 8 km
>= 3000ft
5 to 8 km
1000 to 3000 ft
1500m to 5 km
500 to 1000 ft
800 to 1500m
200 to 500 ft
< 800m
< 200 ft
Symbols :   Thunderstorms  Fog  Heavy snow  Heavy precipitations  Wind > 20 kt







- Airport Elevation : 357 ft
- IATA code : YSJ


CYSJ - Saint John

CURRENT METAR :
  • 210900Z 35008KT 15SM FEW050 SCT270 16/15 A3000 RMK SC1CI2 SLP160 DENSITY ALT 500FT

EXPIRED METARs :
  • 210800Z 34008KT 15SM FEW047 SCT270 17/15 A2999 RMK SC2CI1 SLP156 DENSITY ALT 600FT
  • 210700Z 34008KT 15SM SCT046 BKN270 17/15 A2997 RMK SC4CI2 SLP151 DENSITY ALT 700FT

TAF TAF CYSJ
Valid from the 21 at 06:00 until the 21 at 18:00 UTC


210538Z 2106/2118 32008KT P6SM FEW040
BECMG 2110/2112 35010G20KT RMK NXT FCST BY 211200Z
No reported NOTAMs for that airfield.



MET'MAP, your aeronautical weather chart ! - Copyright ORBIFLY December 2007 - Disclaimer

ORBIFLY MET'MAP TEAM :

Programming & Development : Alexandra Zaïnal
Concept & Development : Baudouin d'Aumeries
Co-Development & Prog : Marc-Olivier Méhu
Technical & hardware support : Manuel Goepfert

Contact : metmap@orbifly.com




SOURCES & CREDITS :

   NOAA